sensor_id;sensor_type;location;lat;lon;timestamp;P1;durP1;ratioP1;P2;durP2;ratioP2
5343;SDS011;2694;48.950;8.970;2022-12-18T00:00:25;77.38;;;33.67;;
5343;SDS011;2694;48.950;8.970;2022-12-18T00:02:52;85.22;;;34.72;;
5343;SDS011;2694;48.950;8.970;2022-12-18T00:05:19;79.07;;;33.85;;
5343;SDS011;2694;48.950;8.970;2022-12-18T00:07:48;72.90;;;32.00;;
5343;SDS011;2694;48.950;8.970;2022-12-18T00:10:17;76.22;;;32.50;;
5343;SDS011;2694;48.950;8.970;2022-12-18T00:12:46;80.72;;;32.95;;
5343;SDS011;2694;48.950;8.970;2022-12-18T00:15:13;81.40;;;32.90;;
5343;SDS011;2694;48.950;8.970;2022-12-18T00:17:40;76.88;;;32.88;;
5343;SDS011;2694;48.950;8.970;2022-12-18T00:20:24;76.10;;;31.48;;
5343;SDS011;2694;48.950;8.970;2022-12-18T00:23:05;76.80;;;32.47;;
5343;SDS011;2694;48.950;8.970;2022-12-18T00:25:39;88.88;;;35.03;;
5343;SDS011;2694;48.950;8.970;2022-12-18T00:28:21;75.95;;;31.85;;
5343;SDS011;2694;48.950;8.970;2022-12-18T00:30:48;75.28;;;31.40;;
5343;SDS011;2694;48.950;8.970;2022-12-18T00:33:25;76.22;;;32.60;;
5343;SDS011;2694;48.950;8.970;2022-12-18T00:36:01;80.50;;;32.67;;
5343;SDS011;2694;48.950;8.970;2022-12-18T00:42:01;72.47;;;31.77;;
5343;SDS011;2694;48.950;8.970;2022-12-18T00:44:55;87.70;;;33.97;;
5343;SDS011;2694;48.950;8.970;2022-12-18T00:47:22;83.28;;;33.22;;
5343;SDS011;2694;48.950;8.970;2022-12-18T00:50:03;76.55;;;32.30;;
5343;SDS011;2694;48.950;8.970;2022-12-18T00:52:33;66.43;;;31.23;;
5343;SDS011;2694;48.950;8.970;2022-12-18T00:58:18;68.40;;;30.70;;
5343;SDS011;2694;48.950;8.970;2022-12-18T01:01:00;77.18;;;32.33;;
5343;SDS011;2694;48.950;8.970;2022-12-18T01:03:29;79.72;;;33.38;;
5343;SDS011;2694;48.950;8.970;2022-12-18T01:05:56;102.07;;;40.17;;
5343;SDS011;2694;48.950;8.970;2022-12-18T01:08:25;93.80;;;36.28;;
5343;SDS011;2694;48.950;8.970;2022-12-18T01:23:38;72.88;;;30.90;;
5343;SDS011;2694;48.950;8.970;2022-12-18T01:26:37;79.45;;;31.17;;
5343;SDS011;2694;48.950;8.970;2022-12-18T01:29:05;76.43;;;32.03;;
5343;SDS011;2694;48.950;8.970;2022-12-18T01:38:16;91.10;;;34.63;;
5343;SDS011;2694;48.950;8.970;2022-12-18T01:40:43;77.65;;;33.53;;
5343;SDS011;2694;48.950;8.970;2022-12-18T01:43:11;79.22;;;33.67;;
5343;SDS011;2694;48.950;8.970;2022-12-18T01:45:38;81.00;;;33.13;;
5343;SDS011;2694;48.950;8.970;2022-12-18T01:48:05;78.65;;;33.00;;
5343;SDS011;2694;48.950;8.970;2022-12-18T01:50:36;77.03;;;32.40;;
5343;SDS011;2694;48.950;8.970;2022-12-18T01:53:13;77.05;;;31.02;;
5343;SDS011;2694;48.950;8.970;2022-12-18T01:59:12;79.88;;;31.88;;
5343;SDS011;2694;48.950;8.970;2022-12-18T02:01:40;83.10;;;34.22;;
5343;SDS011;2694;48.950;8.970;2022-12-18T02:07:02;85.93;;;34.85;;
5343;SDS011;2694;48.950;8.970;2022-12-18T02:09:40;85.07;;;35.15;;
5343;SDS011;2694;48.950;8.970;2022-12-18T02:12:48;75.10;;;32.78;;
5343;SDS011;2694;48.950;8.970;2022-12-18T02:15:16;83.45;;;33.53;;
5343;SDS011;2694;48.950;8.970;2022-12-18T02:17:50;86.35;;;33.58;;
5343;SDS011;2694;48.950;8.970;2022-12-18T02:20:21;83.45;;;32.97;;
5343;SDS011;2694;48.950;8.970;2022-12-18T02:23:05;81.82;;;34.15;;
5343;SDS011;2694;48.950;8.970;2022-12-18T02:25:54;81.22;;;34.40;;
5343;SDS011;2694;48.950;8.970;2022-12-18T02:28:34;77.20;;;32.33;;
5343;SDS011;2694;48.950;8.970;2022-12-18T02:31:06;76.53;;;33.40;;
5343;SDS011;2694;48.950;8.970;2022-12-18T02:33:37;79.00;;;30.67;;
5343;SDS011;2694;48.950;8.970;2022-12-18T02:36:06;78.97;;;32.45;;
5343;SDS011;2694;48.950;8.970;2022-12-18T02:38:35;73.73;;;30.70;;
5343;SDS011;2694;48.950;8.970;2022-12-18T02:41:18;75.57;;;30.23;;
5343;SDS011;2694;48.950;8.970;2022-12-18T02:44:10;69.18;;;29.50;;
5343;SDS011;2694;48.950;8.970;2022-12-18T02:46:40;70.45;;;30.05;;
5343;SDS011;2694;48.950;8.970;2022-12-18T02:49:28;71.22;;;30.30;;
5343;SDS011;2694;48.950;8.970;2022-12-18T02:52:02;69.10;;;29.10;;
5343;SDS011;2694;48.950;8.970;2022-12-18T02:54:39;68.85;;;29.58;;
5343;SDS011;2694;48.950;8.970;2022-12-18T02:57:19;68.82;;;30.73;;
5343;SDS011;2694;48.950;8.970;2022-12-18T02:59:55;67.00;;;31.60;;
5343;SDS011;2694;48.950;8.970;2022-12-18T03:02:29;74.38;;;32.17;;
5343;SDS011;2694;48.950;8.970;2022-12-18T03:05:04;73.43;;;29.92;;
5343;SDS011;2694;48.950;8.970;2022-12-18T03:07:38;73.45;;;31.67;;
5343;SDS011;2694;48.950;8.970;2022-12-18T03:10:11;81.07;;;32.30;;
5343;SDS011;2694;48.950;8.970;2022-12-18T03:12:43;86.22;;;32.63;;
5343;SDS011;2694;48.950;8.970;2022-12-18T03:15:14;79.05;;;32.03;;
5343;SDS011;2694;48.950;8.970;2022-12-18T03:17:46;78.93;;;33.10;;
5343;SDS011;2694;48.950;8.970;2022-12-18T03:20:18;74.80;;;32.50;;
5343;SDS011;2694;48.950;8.970;2022-12-18T03:22:48;75.05;;;32.50;;
5343;SDS011;2694;48.950;8.970;2022-12-18T03:25:18;74.68;;;31.90;;
5343;SDS011;2694;48.950;8.970;2022-12-18T03:27:48;74.70;;;32.70;;
5343;SDS011;2694;48.950;8.970;2022-12-18T03:30:18;73.20;;;31.05;;
5343;SDS011;2694;48.950;8.970;2022-12-18T03:32:47;70.05;;;30.77;;
5343;SDS011;2694;48.950;8.970;2022-12-18T03:35:19;72.95;;;31.77;;
5343;SDS011;2694;48.950;8.970;2022-12-18T03:37:49;77.15;;;32.25;;
5343;SDS011;2694;48.950;8.970;2022-12-18T03:40:16;72.93;;;31.60;;
5343;SDS011;2694;48.950;8.970;2022-12-18T03:42:45;79.80;;;31.58;;
5343;SDS011;2694;48.950;8.970;2022-12-18T03:45:18;74.10;;;29.15;;
5343;SDS011;2694;48.950;8.970;2022-12-18T03:47:53;74.43;;;32.72;;
5343;SDS011;2694;48.950;8.970;2022-12-18T03:50:27;77.20;;;30.63;;
5343;SDS011;2694;48.950;8.970;2022-12-18T03:53:04;75.13;;;32.03;;
5343;SDS011;2694;48.950;8.970;2022-12-18T03:55:43;75.18;;;31.60;;
5343;SDS011;2694;48.950;8.970;2022-12-18T03:58:13;72.65;;;29.50;;
5343;SDS011;2694;48.950;8.970;2022-12-18T04:00:44;81.38;;;32.35;;
5343;SDS011;2694;48.950;8.970;2022-12-18T04:03:13;80.45;;;32.65;;
5343;SDS011;2694;48.950;8.970;2022-12-18T04:05:42;71.00;;;31.35;;
5343;SDS011;2694;48.950;8.970;2022-12-18T04:08:10;75.13;;;31.88;;
5343;SDS011;2694;48.950;8.970;2022-12-18T04:10:37;80.22;;;32.60;;
5343;SDS011;2694;48.950;8.970;2022-12-18T04:13:04;74.32;;;31.65;;
5343;SDS011;2694;48.950;8.970;2022-12-18T04:15:33;74.07;;;31.70;;
5343;SDS011;2694;48.950;8.970;2022-12-18T04:18:02;85.80;;;33.60;;
5343;SDS011;2694;48.950;8.970;2022-12-18T04:20:29;75.15;;;30.77;;
5343;SDS011;2694;48.950;8.970;2022-12-18T04:22:56;82.32;;;34.20;;
5343;SDS011;2694;48.950;8.970;2022-12-18T04:25:23;78.53;;;32.03;;
5343;SDS011;2694;48.950;8.970;2022-12-18T04:27:50;80.25;;;32.60;;
5343;SDS011;2694;48.950;8.970;2022-12-18T04:30:17;82.93;;;31.40;;
5343;SDS011;2694;48.950;8.970;2022-12-18T04:32:46;79.95;;;30.98;;
5343;SDS011;2694;48.950;8.970;2022-12-18T04:35:13;82.63;;;31.67;;
5343;SDS011;2694;48.950;8.970;2022-12-18T04:37:40;75.53;;;30.02;;
5343;SDS011;2694;48.950;8.970;2022-12-18T04:40:07;70.55;;;28.90;;
5343;SDS011;2694;48.950;8.970;2022-12-18T04:42:35;71.80;;;28.00;;
5343;SDS011;2694;48.950;8.970;2022-12-18T04:45:02;71.77;;;29.53;;
5343;SDS011;2694;48.950;8.970;2022-12-18T04:47:30;70.57;;;28.80;;
5343;SDS011;2694;48.950;8.970;2022-12-18T04:49:58;66.63;;;27.92;;
5343;SDS011;2694;48.950;8.970;2022-12-18T04:52:25;62.55;;;26.45;;
5343;SDS011;2694;48.950;8.970;2022-12-18T04:54:52;66.70;;;27.08;;
5343;SDS011;2694;48.950;8.970;2022-12-18T04:57:19;70.70;;;27.80;;
5343;SDS011;2694;48.950;8.970;2022-12-18T04:59:46;64.82;;;27.58;;
5343;SDS011;2694;48.950;8.970;2022-12-18T05:02:13;63.00;;;26.25;;
5343;SDS011;2694;48.950;8.970;2022-12-18T05:04:40;68.50;;;26.92;;
5343;SDS011;2694;48.950;8.970;2022-12-18T05:07:08;66.47;;;27.23;;
5343;SDS011;2694;48.950;8.970;2022-12-18T05:09:36;67.68;;;25.85;;
5343;SDS011;2694;48.950;8.970;2022-12-18T05:12:03;66.70;;;27.27;;
5343;SDS011;2694;48.950;8.970;2022-12-18T05:14:30;67.05;;;26.52;;
5343;SDS011;2694;48.950;8.970;2022-12-18T05:16:57;64.40;;;24.52;;
5343;SDS011;2694;48.950;8.970;2022-12-18T05:19:24;67.97;;;28.10;;
5343;SDS011;2694;48.950;8.970;2022-12-18T05:21:51;64.35;;;24.80;;
5343;SDS011;2694;48.950;8.970;2022-12-18T05:24:19;63.40;;;26.00;;
5343;SDS011;2694;48.950;8.970;2022-12-18T05:26:46;61.67;;;26.20;;
5343;SDS011;2694;48.950;8.970;2022-12-18T05:29:13;57.50;;;23.60;;
5343;SDS011;2694;48.950;8.970;2022-12-18T05:31:40;61.47;;;25.05;;
5343;SDS011;2694;48.950;8.970;2022-12-18T05:34:07;59.22;;;24.98;;
5343;SDS011;2694;48.950;8.970;2022-12-18T05:36:34;56.88;;;23.85;;
5343;SDS011;2694;48.950;8.970;2022-12-18T05:39:01;53.60;;;23.60;;
5343;SDS011;2694;48.950;8.970;2022-12-18T05:41:30;58.28;;;24.35;;
5343;SDS011;2694;48.950;8.970;2022-12-18T05:43:57;64.32;;;24.23;;
5343;SDS011;2694;48.950;8.970;2022-12-18T05:46:25;60.45;;;24.83;;
5343;SDS011;2694;48.950;8.970;2022-12-18T05:48:52;54.60;;;24.38;;
5343;SDS011;2694;48.950;8.970;2022-12-18T05:51:20;49.30;;;22.30;;
5343;SDS011;2694;48.950;8.970;2022-12-18T05:53:48;61.03;;;23.52;;
5343;SDS011;2694;48.950;8.970;2022-12-18T05:56:18;56.13;;;23.58;;
5343;SDS011;2694;48.950;8.970;2022-12-18T05:58:50;52.92;;;22.35;;
5343;SDS011;2694;48.950;8.970;2022-12-18T06:01:19;52.20;;;23.13;;
5343;SDS011;2694;48.950;8.970;2022-12-18T06:03:47;54.40;;;21.50;;
5343;SDS011;2694;48.950;8.970;2022-12-18T06:06:15;51.33;;;22.65;;
5343;SDS011;2694;48.950;8.970;2022-12-18T06:08:43;64.82;;;23.25;;
5343;SDS011;2694;48.950;8.970;2022-12-18T06:11:10;55.50;;;23.75;;
5343;SDS011;2694;48.950;8.970;2022-12-18T06:13:38;53.38;;;22.15;;
5343;SDS011;2694;48.950;8.970;2022-12-18T06:16:07;48.47;;;21.25;;
5343;SDS011;2694;48.950;8.970;2022-12-18T06:18:37;51.80;;;21.17;;
5343;SDS011;2694;48.950;8.970;2022-12-18T06:21:04;48.90;;;20.77;;
5343;SDS011;2694;48.950;8.970;2022-12-18T06:23:31;48.08;;;20.90;;
5343;SDS011;2694;48.950;8.970;2022-12-18T06:25:58;51.43;;;20.70;;
5343;SDS011;2694;48.950;8.970;2022-12-18T06:28:29;49.20;;;21.65;;
5343;SDS011;2694;48.950;8.970;2022-12-18T06:30:56;49.72;;;22.17;;
5343;SDS011;2694;48.950;8.970;2022-12-18T06:33:26;52.05;;;21.70;;
5343;SDS011;2694;48.950;8.970;2022-12-18T06:35:54;55.30;;;22.33;;
5343;SDS011;2694;48.950;8.970;2022-12-18T06:38:25;46.95;;;21.48;;
5343;SDS011;2694;48.950;8.970;2022-12-18T06:40:52;55.40;;;22.33;;
5343;SDS011;2694;48.950;8.970;2022-12-18T06:43:19;49.65;;;21.73;;
5343;SDS011;2694;48.950;8.970;2022-12-18T06:45:46;47.83;;;21.08;;
5343;SDS011;2694;48.950;8.970;2022-12-18T06:48:17;51.20;;;21.10;;
5343;SDS011;2694;48.950;8.970;2022-12-18T06:50:46;46.90;;;21.05;;
5343;SDS011;2694;48.950;8.970;2022-12-18T06:53:13;50.75;;;21.25;;
5343;SDS011;2694;48.950;8.970;2022-12-18T06:55:40;51.87;;;22.07;;
5343;SDS011;2694;48.950;8.970;2022-12-18T06:58:07;53.80;;;21.35;;
5343;SDS011;2694;48.950;8.970;2022-12-18T07:00:34;46.20;;;21.65;;
5343;SDS011;2694;48.950;8.970;2022-12-18T07:03:01;51.50;;;21.45;;
5343;SDS011;2694;48.950;8.970;2022-12-18T07:05:28;54.45;;;22.30;;
5343;SDS011;2694;48.950;8.970;2022-12-18T07:07:57;57.47;;;21.73;;
5343;SDS011;2694;48.950;8.970;2022-12-18T07:10:24;57.53;;;23.77;;
5343;SDS011;2694;48.950;8.970;2022-12-18T07:12:52;47.63;;;21.27;;
5343;SDS011;2694;48.950;8.970;2022-12-18T07:15:20;59.33;;;23.40;;
5343;SDS011;2694;48.950;8.970;2022-12-18T07:17:52;53.90;;;23.08;;
5343;SDS011;2694;48.950;8.970;2022-12-18T07:20:21;57.58;;;24.83;;
5343;SDS011;2694;48.950;8.970;2022-12-18T07:22:48;59.80;;;25.00;;
5343;SDS011;2694;48.950;8.970;2022-12-18T07:25:16;55.22;;;23.00;;
5343;SDS011;2694;48.950;8.970;2022-12-18T07:27:43;52.93;;;22.90;;
5343;SDS011;2694;48.950;8.970;2022-12-18T07:30:10;55.50;;;22.00;;
5343;SDS011;2694;48.950;8.970;2022-12-18T07:32:38;55.28;;;22.38;;
5343;SDS011;2694;48.950;8.970;2022-12-18T07:35:05;51.63;;;22.48;;
5343;SDS011;2694;48.950;8.970;2022-12-18T07:37:32;53.28;;;24.55;;
5343;SDS011;2694;48.950;8.970;2022-12-18T07:40:00;56.72;;;22.45;;
5343;SDS011;2694;48.950;8.970;2022-12-18T07:42:28;59.88;;;23.75;;
5343;SDS011;2694;48.950;8.970;2022-12-18T07:44:58;56.22;;;23.95;;
5343;SDS011;2694;48.950;8.970;2022-12-18T07:47:26;51.65;;;23.02;;
5343;SDS011;2694;48.950;8.970;2022-12-18T07:49:53;59.10;;;23.70;;
5343;SDS011;2694;48.950;8.970;2022-12-18T07:52:20;60.22;;;23.95;;
5343;SDS011;2694;48.950;8.970;2022-12-18T07:54:47;61.08;;;25.05;;
5343;SDS011;2694;48.950;8.970;2022-12-18T07:57:15;62.85;;;25.73;;
5343;SDS011;2694;48.950;8.970;2022-12-18T07:59:43;60.95;;;24.08;;
5343;SDS011;2694;48.950;8.970;2022-12-18T08:02:10;54.33;;;22.48;;
5343;SDS011;2694;48.950;8.970;2022-12-18T08:07:38;60.10;;;24.52;;
5343;SDS011;2694;48.950;8.970;2022-12-18T08:10:06;54.67;;;25.45;;
5343;SDS011;2694;48.950;8.970;2022-12-18T08:12:34;59.55;;;25.98;;
5343;SDS011;2694;48.950;8.970;2022-12-18T08:18:05;60.22;;;26.58;;
5343;SDS011;2694;48.950;8.970;2022-12-18T08:20:32;70.80;;;27.25;;
5343;SDS011;2694;48.950;8.970;2022-12-18T08:22:58;62.38;;;27.23;;
5343;SDS011;2694;48.950;8.970;2022-12-18T08:25:25;59.53;;;25.83;;
5343;SDS011;2694;48.950;8.970;2022-12-18T08:27:52;59.85;;;25.95;;
5343;SDS011;2694;48.950;8.970;2022-12-18T08:30:21;60.90;;;26.20;;
5343;SDS011;2694;48.950;8.970;2022-12-18T08:32:52;67.72;;;25.23;;
5343;SDS011;2694;48.950;8.970;2022-12-18T08:35:19;59.05;;;25.42;;
5343;SDS011;2694;48.950;8.970;2022-12-18T08:37:46;67.07;;;26.43;;
5343;SDS011;2694;48.950;8.970;2022-12-18T08:40:13;60.08;;;24.73;;
5343;SDS011;2694;48.950;8.970;2022-12-18T08:42:40;56.42;;;24.17;;
5343;SDS011;2694;48.950;8.970;2022-12-18T08:45:25;61.60;;;25.10;;
5343;SDS011;2694;48.950;8.970;2022-12-18T08:47:53;64.30;;;26.10;;
5343;SDS011;2694;48.950;8.970;2022-12-18T08:50:20;57.50;;;24.52;;
5343;SDS011;2694;48.950;8.970;2022-12-18T08:52:47;58.33;;;24.45;;
5343;SDS011;2694;48.950;8.970;2022-12-18T08:55:14;60.73;;;26.20;;
5343;SDS011;2694;48.950;8.970;2022-12-18T08:57:41;55.80;;;25.30;;
5343;SDS011;2694;48.950;8.970;2022-12-18T09:00:09;65.70;;;26.80;;
5343;SDS011;2694;48.950;8.970;2022-12-18T09:02:38;59.47;;;25.80;;
5343;SDS011;2694;48.950;8.970;2022-12-18T09:05:06;59.50;;;25.13;;
5343;SDS011;2694;48.950;8.970;2022-12-18T09:07:33;63.33;;;26.10;;
5343;SDS011;2694;48.950;8.970;2022-12-18T09:10:03;62.70;;;25.27;;
5343;SDS011;2694;48.950;8.970;2022-12-18T09:12:31;57.72;;;24.35;;
5343;SDS011;2694;48.950;8.970;2022-12-18T09:14:58;56.10;;;24.08;;
5343;SDS011;2694;48.950;8.970;2022-12-18T09:17:25;66.45;;;26.80;;
5343;SDS011;2694;48.950;8.970;2022-12-18T09:19:52;59.22;;;25.45;;
5343;SDS011;2694;48.950;8.970;2022-12-18T09:22:24;68.88;;;27.48;;
5343;SDS011;2694;48.950;8.970;2022-12-18T09:24:51;60.88;;;25.45;;
5343;SDS011;2694;48.950;8.970;2022-12-18T09:27:19;57.42;;;24.38;;
5343;SDS011;2694;48.950;8.970;2022-12-18T09:29:46;64.00;;;26.53;;
5343;SDS011;2694;48.950;8.970;2022-12-18T09:32:13;52.92;;;23.88;;
5343;SDS011;2694;48.950;8.970;2022-12-18T09:34:41;56.38;;;23.83;;
5343;SDS011;2694;48.950;8.970;2022-12-18T09:37:08;52.90;;;23.73;;
5343;SDS011;2694;48.950;8.970;2022-12-18T09:39:36;54.33;;;23.70;;
5343;SDS011;2694;48.950;8.970;2022-12-18T09:42:05;57.70;;;24.40;;
5343;SDS011;2694;48.950;8.970;2022-12-18T09:44:37;58.67;;;24.87;;
5343;SDS011;2694;48.950;8.970;2022-12-18T09:47:08;60.30;;;25.92;;
5343;SDS011;2694;48.950;8.970;2022-12-18T09:49:41;60.20;;;25.37;;
5343;SDS011;2694;48.950;8.970;2022-12-18T09:52:12;58.40;;;24.52;;
5343;SDS011;2694;48.950;8.970;2022-12-18T09:54:43;57.87;;;24.00;;
5343;SDS011;2694;48.950;8.970;2022-12-18T09:57:15;59.60;;;24.48;;
5343;SDS011;2694;48.950;8.970;2022-12-18T09:59:48;57.78;;;24.02;;
5343;SDS011;2694;48.950;8.970;2022-12-18T10:02:20;56.90;;;25.17;;
5343;SDS011;2694;48.950;8.970;2022-12-18T10:04:52;61.00;;;24.30;;
5343;SDS011;2694;48.950;8.970;2022-12-18T10:07:29;54.10;;;24.00;;
5343;SDS011;2694;48.950;8.970;2022-12-18T10:10:06;55.25;;;23.70;;
5343;SDS011;2694;48.950;8.970;2022-12-18T10:12:42;53.65;;;23.80;;
5343;SDS011;2694;48.950;8.970;2022-12-18T10:15:19;54.05;;;23.88;;
5343;SDS011;2694;48.950;8.970;2022-12-18T10:17:53;60.22;;;23.27;;
5343;SDS011;2694;48.950;8.970;2022-12-18T10:20:29;52.33;;;23.30;;
5343;SDS011;2694;48.950;8.970;2022-12-18T10:23:03;50.80;;;22.88;;
5343;SDS011;2694;48.950;8.970;2022-12-18T10:25:42;55.63;;;24.63;;
5343;SDS011;2694;48.950;8.970;2022-12-18T10:28:17;66.55;;;25.15;;
5343;SDS011;2694;48.950;8.970;2022-12-18T10:30:46;58.20;;;25.27;;
5343;SDS011;2694;48.950;8.970;2022-12-18T10:33:19;56.90;;;24.27;;
5343;SDS011;2694;48.950;8.970;2022-12-18T10:35:48;57.33;;;24.58;;
5343;SDS011;2694;48.950;8.970;2022-12-18T10:38:23;62.45;;;25.02;;
5343;SDS011;2694;48.950;8.970;2022-12-18T10:40:54;54.80;;;25.00;;
5343;SDS011;2694;48.950;8.970;2022-12-18T10:43:24;55.33;;;23.58;;
5343;SDS011;2694;48.950;8.970;2022-12-18T10:46:00;56.50;;;24.33;;
5343;SDS011;2694;48.950;8.970;2022-12-18T10:48:31;54.22;;;22.88;;
5343;SDS011;2694;48.950;8.970;2022-12-18T10:50:59;58.55;;;24.73;;
5343;SDS011;2694;48.950;8.970;2022-12-18T10:53:27;54.15;;;24.13;;
5343;SDS011;2694;48.950;8.970;2022-12-18T10:56:02;53.15;;;23.23;;
5343;SDS011;2694;48.950;8.970;2022-12-18T10:58:32;57.70;;;23.70;;
5343;SDS011;2694;48.950;8.970;2022-12-18T11:01:04;50.93;;;22.83;;
5343;SDS011;2694;48.950;8.970;2022-12-18T11:03:34;53.00;;;23.67;;
5343;SDS011;2694;48.950;8.970;2022-12-18T11:06:05;54.38;;;22.50;;
5343;SDS011;2694;48.950;8.970;2022-12-18T11:08:34;55.25;;;22.45;;
5343;SDS011;2694;48.950;8.970;2022-12-18T11:11:03;46.72;;;20.10;;
5343;SDS011;2694;48.950;8.970;2022-12-18T11:13:34;48.38;;;21.45;;
5343;SDS011;2694;48.950;8.970;2022-12-18T11:16:01;50.20;;;22.33;;
5343;SDS011;2694;48.950;8.970;2022-12-18T11:18:28;49.78;;;20.92;;
5343;SDS011;2694;48.950;8.970;2022-12-18T11:20:58;48.28;;;21.05;;
5343;SDS011;2694;48.950;8.970;2022-12-18T11:23:27;47.45;;;21.33;;
5343;SDS011;2694;48.950;8.970;2022-12-18T11:25:56;47.87;;;21.90;;
5343;SDS011;2694;48.950;8.970;2022-12-18T11:28:28;51.42;;;20.42;;
5343;SDS011;2694;48.950;8.970;2022-12-18T11:31:12;51.20;;;21.77;;
5343;SDS011;2694;48.950;8.970;2022-12-18T11:33:52;49.38;;;21.60;;
5343;SDS011;2694;48.950;8.970;2022-12-18T11:36:28;47.78;;;20.17;;
5343;SDS011;2694;48.950;8.970;2022-12-18T11:38:59;46.92;;;20.27;;
5343;SDS011;2694;48.950;8.970;2022-12-18T11:41:33;46.20;;;21.75;;
5343;SDS011;2694;48.950;8.970;2022-12-18T11:44:26;44.20;;;20.30;;
5343;SDS011;2694;48.950;8.970;2022-12-18T11:46:59;49.83;;;20.88;;
5343;SDS011;2694;48.950;8.970;2022-12-18T11:49:32;44.60;;;21.40;;
5343;SDS011;2694;48.950;8.970;2022-12-18T11:52:01;43.00;;;21.05;;
5343;SDS011;2694;48.950;8.970;2022-12-18T11:54:35;46.95;;;20.80;;
5343;SDS011;2694;48.950;8.970;2022-12-18T11:57:05;47.42;;;21.02;;
5343;SDS011;2694;48.950;8.970;2022-12-18T11:59:43;47.15;;;21.60;;
5343;SDS011;2694;48.950;8.970;2022-12-18T12:02:21;47.85;;;21.52;;
5343;SDS011;2694;48.950;8.970;2022-12-18T12:05:05;45.95;;;20.77;;
5343;SDS011;2694;48.950;8.970;2022-12-18T12:07:59;46.40;;;21.95;;
5343;SDS011;2694;48.950;8.970;2022-12-18T12:10:38;48.45;;;20.27;;
5343;SDS011;2694;48.950;8.970;2022-12-18T12:13:20;51.33;;;22.70;;
5343;SDS011;2694;48.950;8.970;2022-12-18T12:15:58;49.17;;;21.88;;
5343;SDS011;2694;48.950;8.970;2022-12-18T12:18:36;44.50;;;20.63;;
5343;SDS011;2694;48.950;8.970;2022-12-18T12:21:14;57.90;;;24.48;;
5343;SDS011;2694;48.950;8.970;2022-12-18T12:23:49;55.85;;;24.48;;
5343;SDS011;2694;48.950;8.970;2022-12-18T12:26:26;55.67;;;24.75;;
5343;SDS011;2694;48.950;8.970;2022-12-18T12:29:02;52.88;;;23.23;;
5343;SDS011;2694;48.950;8.970;2022-12-18T12:31:45;44.40;;;20.45;;
5343;SDS011;2694;48.950;8.970;2022-12-18T12:34:23;43.92;;;20.30;;
5343;SDS011;2694;48.950;8.970;2022-12-18T12:36:57;44.25;;;19.92;;
5343;SDS011;2694;48.950;8.970;2022-12-18T12:39:36;47.38;;;20.95;;
5343;SDS011;2694;48.950;8.970;2022-12-18T12:42:10;45.53;;;20.00;;
5343;SDS011;2694;48.950;8.970;2022-12-18T12:45:03;49.55;;;20.02;;
5343;SDS011;2694;48.950;8.970;2022-12-18T12:47:37;45.15;;;20.52;;
5343;SDS011;2694;48.950;8.970;2022-12-18T12:50:13;44.35;;;19.40;;
5343;SDS011;2694;48.950;8.970;2022-12-18T12:52:44;43.78;;;18.83;;
5343;SDS011;2694;48.950;8.970;2022-12-18T12:55:14;49.80;;;19.83;;
5343;SDS011;2694;48.950;8.970;2022-12-18T12:57:45;46.30;;;19.60;;
5343;SDS011;2694;48.950;8.970;2022-12-18T13:00:21;42.72;;;19.70;;
5343;SDS011;2694;48.950;8.970;2022-12-18T13:02:52;43.17;;;19.20;;
5343;SDS011;2694;48.950;8.970;2022-12-18T13:05:29;43.43;;;19.83;;
5343;SDS011;2694;48.950;8.970;2022-12-18T13:08:01;45.93;;;20.17;;
5343;SDS011;2694;48.950;8.970;2022-12-18T13:10:32;44.57;;;20.00;;
5343;SDS011;2694;48.950;8.970;2022-12-18T13:13:01;49.77;;;20.27;;
5343;SDS011;2694;48.950;8.970;2022-12-18T13:15:30;44.92;;;18.88;;
5343;SDS011;2694;48.950;8.970;2022-12-18T13:18:05;46.72;;;19.98;;
5343;SDS011;2694;48.950;8.970;2022-12-18T13:20:40;42.35;;;19.60;;
5343;SDS011;2694;48.950;8.970;2022-12-18T13:23:29;47.88;;;19.92;;
5343;SDS011;2694;48.950;8.970;2022-12-18T13:28:57;54.40;;;22.35;;
5343;SDS011;2694;48.950;8.970;2022-12-18T13:34:35;47.75;;;21.13;;
5343;SDS011;2694;48.950;8.970;2022-12-18T13:43:35;52.07;;;22.70;;
5343;SDS011;2694;48.950;8.970;2022-12-18T13:46:06;49.20;;;21.55;;
5343;SDS011;2694;48.950;8.970;2022-12-18T13:48:49;47.38;;;21.70;;
5343;SDS011;2694;48.950;8.970;2022-12-18T13:51:23;49.15;;;21.63;;
5343;SDS011;2694;48.950;8.970;2022-12-18T13:53:52;51.40;;;20.98;;
5343;SDS011;2694;48.950;8.970;2022-12-18T13:56:22;49.33;;;22.00;;
5343;SDS011;2694;48.950;8.970;2022-12-18T13:59:08;48.87;;;21.63;;
5343;SDS011;2694;48.950;8.970;2022-12-18T14:01:47;49.20;;;20.20;;
5343;SDS011;2694;48.950;8.970;2022-12-18T14:04:18;52.42;;;22.10;;
5343;SDS011;2694;48.950;8.970;2022-12-18T14:06:51;50.30;;;21.42;;
5343;SDS011;2694;48.950;8.970;2022-12-18T14:09:23;49.60;;;21.25;;
5343;SDS011;2694;48.950;8.970;2022-12-18T14:11:52;49.28;;;21.08;;
5343;SDS011;2694;48.950;8.970;2022-12-18T14:14:42;52.55;;;20.73;;
5343;SDS011;2694;48.950;8.970;2022-12-18T14:17:10;49.63;;;20.55;;
5343;SDS011;2694;48.950;8.970;2022-12-18T14:19:40;48.92;;;21.88;;
5343;SDS011;2694;48.950;8.970;2022-12-18T14:22:18;57.50;;;22.23;;
5343;SDS011;2694;48.950;8.970;2022-12-18T14:24:47;49.35;;;22.02;;
5343;SDS011;2694;48.950;8.970;2022-12-18T14:27:30;51.10;;;21.88;;
5343;SDS011;2694;48.950;8.970;2022-12-18T14:29:57;48.22;;;20.40;;
5343;SDS011;2694;48.950;8.970;2022-12-18T14:32:24;55.28;;;21.83;;
5343;SDS011;2694;48.950;8.970;2022-12-18T14:34:51;52.85;;;21.92;;
5343;SDS011;2694;48.950;8.970;2022-12-18T14:37:22;50.10;;;21.50;;
5343;SDS011;2694;48.950;8.970;2022-12-18T14:39:54;46.95;;;19.73;;
5343;SDS011;2694;48.950;8.970;2022-12-18T14:42:23;51.53;;;23.60;;
5343;SDS011;2694;48.950;8.970;2022-12-18T14:47:53;52.97;;;22.60;;
5343;SDS011;2694;48.950;8.970;2022-12-18T14:50:20;49.67;;;22.38;;
5343;SDS011;2694;48.950;8.970;2022-12-18T14:52:48;55.53;;;21.95;;
5343;SDS011;2694;48.950;8.970;2022-12-18T14:55:16;52.22;;;23.40;;
5343;SDS011;2694;48.950;8.970;2022-12-18T14:57:44;55.08;;;22.63;;
5343;SDS011;2694;48.950;8.970;2022-12-18T15:00:16;58.28;;;24.02;;
5343;SDS011;2694;48.950;8.970;2022-12-18T15:02:45;54.55;;;23.50;;
5343;SDS011;2694;48.950;8.970;2022-12-18T15:05:17;59.08;;;24.75;;
5343;SDS011;2694;48.950;8.970;2022-12-18T15:07:46;55.85;;;23.90;;
5343;SDS011;2694;48.950;8.970;2022-12-18T15:10:17;54.50;;;24.45;;
5343;SDS011;2694;48.950;8.970;2022-12-18T15:12:46;56.97;;;23.42;;
5343;SDS011;2694;48.950;8.970;2022-12-18T15:18:13;47.70;;;22.55;;
5343;SDS011;2694;48.950;8.970;2022-12-18T15:20:43;55.80;;;22.20;;
5343;SDS011;2694;48.950;8.970;2022-12-18T15:23:16;51.05;;;22.55;;
5343;SDS011;2694;48.950;8.970;2022-12-18T15:25:44;53.90;;;22.50;;
5343;SDS011;2694;48.950;8.970;2022-12-18T15:28:18;58.63;;;24.48;;
5343;SDS011;2694;48.950;8.970;2022-12-18T15:30:58;51.22;;;23.45;;
5343;SDS011;2694;48.950;8.970;2022-12-18T15:33:29;56.47;;;24.97;;
5343;SDS011;2694;48.950;8.970;2022-12-18T15:35:58;56.80;;;25.00;;
5343;SDS011;2694;48.950;8.970;2022-12-18T15:38:28;55.58;;;22.90;;
5343;SDS011;2694;48.950;8.970;2022-12-18T15:40:55;60.17;;;24.88;;
5343;SDS011;2694;48.950;8.970;2022-12-18T15:43:23;55.55;;;23.75;;
5343;SDS011;2694;48.950;8.970;2022-12-18T15:46:02;55.75;;;23.27;;
5343;SDS011;2694;48.950;8.970;2022-12-18T15:48:34;49.10;;;21.85;;
5343;SDS011;2694;48.950;8.970;2022-12-18T15:51:05;51.33;;;22.48;;
5343;SDS011;2694;48.950;8.970;2022-12-18T15:53:39;60.13;;;24.27;;
5343;SDS011;2694;48.950;8.970;2022-12-18T15:56:08;54.88;;;23.95;;
5343;SDS011;2694;48.950;8.970;2022-12-18T15:58:54;61.95;;;23.80;;
5343;SDS011;2694;48.950;8.970;2022-12-18T16:01:21;55.10;;;23.92;;
5343;SDS011;2694;48.950;8.970;2022-12-18T16:03:51;55.70;;;23.50;;
5343;SDS011;2694;48.950;8.970;2022-12-18T16:06:19;54.17;;;23.02;;
5343;SDS011;2694;48.950;8.970;2022-12-18T16:08:47;64.30;;;25.88;;